Airport ID:KCCB
Update Time (UTC):26/05/2019 19:52
Wind Speed (Knots):4
Wind Direction (Magnetic):180
Temperature (°C):12.6
Dew Point (°C):8.1
Humidity (%):73.3
Altimeter (inHg):29.97
Density Altitude (Feet):
Visibility (Miles):10
Clouds (Hundreds of feet):SCT017 BKN023 OVC028
Present Weather:
METAR:METAR KCCB 261950Z AUTO 00000KT 10SM SCT017 BKN023 OVC028 13/08 A2997 RMK AO2

The data displayed is for advisory purposes only and is not to be used for flight planning or operations.

This page is not automatically refreshed. Reload the page to see current data.